createdAt,value
2018-11-26T00:01:04.325Z,95280.43
2018-11-26T00:03:55.683Z,95275.02
2018-11-26T00:06:25.168Z,95268.70
2018-11-26T00:08:54.521Z,95266.00
2018-11-26T00:11:43.560Z,95265.92
2018-11-26T00:14:12.622Z,95262.28
2018-11-26T00:16:42.064Z,95263.47
2018-11-26T00:19:11.048Z,95256.17
2018-11-26T00:22:00.175Z,95255.63
2018-11-26T00:24:29.158Z,95249.34
2018-11-26T00:26:58.608Z,95249.59
2018-11-26T00:29:28.313Z,95248.12
2018-11-26T00:32:16.899Z,95247.69
2018-11-26T00:34:50.498Z,95249.72
2018-11-26T00:37:17.595Z,95243.02
2018-11-26T00:40:08.835Z,95241.99
2018-11-26T00:42:36.026Z,95243.57
2018-11-26T00:45:05.546Z,95236.56
2018-11-26T00:47:36.919Z,95232.82
2018-11-26T00:50:25.424Z,95238.67
2018-11-26T00:55:44.784Z,95241.67
2018-11-26T00:58:35.722Z,95245.16
2018-11-26T01:01:05.130Z,95249.78
2018-11-26T01:03:34.165Z,95247.00
2018-11-26T01:06:22.583Z,95238.64
2018-11-26T01:09:10.726Z,95242.59
2018-11-26T01:11:39.783Z,95235.50
2018-11-26T01:14:28.719Z,95242.59
2018-11-26T01:16:58.073Z,95240.77
2018-11-26T01:19:27.077Z,95233.75
2018-11-26T01:22:17.945Z,95247.79
2018-11-26T01:25:06.154Z,95243.25
2018-11-26T01:27:35.176Z,95244.36
2018-11-26T01:30:25.852Z,95238.06
2018-11-26T01:32:55.309Z,95242.36
2018-11-26T01:35:24.655Z,95243.75
2018-11-26T01:38:13.145Z,95240.67
2018-11-26T01:41:01.079Z,95236.48
2018-11-26T01:43:30.182Z,95229.16
2018-11-26T01:46:18.576Z,95230.63
2018-11-26T01:48:47.680Z,95229.09
2018-11-26T01:51:17.105Z,95232.80
2018-11-26T01:53:46.351Z,95223.94
2018-11-26T01:56:34.913Z,95220.80
2018-11-26T01:59:04.428Z,95219.77
2018-11-26T02:01:33.769Z,95224.23
2018-11-26T02:04:03.109Z,95227.97
2018-11-26T02:06:51.978Z,95230.37
2018-11-26T02:09:21.521Z,95240.16
2018-11-26T02:11:50.815Z,95237.77
2018-11-26T02:14:39.310Z,95246.00
2018-11-26T02:17:10.406Z,95234.38
2018-11-26T02:19:39.861Z,95232.10
2018-11-26T02:22:09.200Z,95228.73
2018-11-26T02:24:57.735Z,95223.77
2018-11-26T02:27:26.738Z,95224.83
2018-11-26T02:29:56.148Z,95224.09
2018-11-26T02:35:18.622Z,95218.89
2018-11-26T02:38:07.110Z,95223.43
2018-11-26T02:40:38.700Z,95219.55
2018-11-26T02:43:06.577Z,95223.54
2018-11-26T02:45:35.536Z,95220.17
2018-11-26T02:48:24.019Z,95223.68
2018-11-26T02:51:00.702Z,95218.52
2018-11-26T02:53:30.121Z,95216.24
2018-11-26T02:56:18.666Z,95205.59
2018-11-26T02:58:58.306Z,95208.87
2018-11-26T03:04:36.978Z,95208.75
2018-11-26T03:07:06.713Z,95208.52
2018-11-26T03:09:37.676Z,95207.37
2018-11-26T03:12:25.908Z,95205.90
2018-11-26T03:14:54.853Z,95200.95
2018-11-26T03:17:23.764Z,95202.39
2018-11-26T03:20:31.722Z,95203.48
2018-11-26T03:23:05.759Z,95204.03
2018-11-26T03:25:34.699Z,95201.53
2018-11-26T03:28:23.195Z,95207.19
2018-11-26T03:30:55.996Z,95206.22
2018-11-26T03:33:25.453Z,95200.30
2018-11-26T03:36:13.989Z,95205.34
2018-11-26T03:39:02.580Z,95201.74
2018-11-26T03:44:34.615Z,95201.31
2018-11-26T03:47:04.006Z,95204.05
2018-11-26T03:49:33.036Z,95205.63
2018-11-26T03:52:21.929Z,95198.52
2018-11-26T03:54:50.981Z,95208.30
2018-11-26T03:57:40.403Z,95211.57
2018-11-26T04:00:18.444Z,95213.50
2018-11-26T04:02:47.363Z,95215.91
2018-11-26T04:05:35.867Z,95215.11
2018-11-26T04:08:05.261Z,95215.73
2018-11-26T04:10:34.243Z,95215.02
2018-11-26T04:13:03.614Z,95222.20
2018-11-26T04:15:52.556Z,95224.03
2018-11-26T04:18:21.560Z,95220.42
2018-11-26T04:20:50.478Z,95215.42
2018-11-26T04:23:38.970Z,95222.83
2018-11-26T04:26:07.919Z,95218.88
2018-11-26T04:28:36.934Z,95218.38
2018-11-26T04:31:06.029Z,95219.99
2018-11-26T04:33:54.515Z,95220.28
2018-11-26T04:36:23.838Z,95218.38
2018-11-26T04:38:55.511Z,95215.80
2018-11-26T04:41:24.442Z,95218.67
2018-11-26T04:44:13.298Z,95216.61
2018-11-26T04:46:42.362Z,95216.61
2018-11-26T04:49:13.614Z,95215.57
2018-11-26T04:52:02.143Z,95210.80
2018-11-26T04:54:31.042Z,95215.63
2018-11-26T04:56:59.947Z,95215.94
2018-11-26T04:59:29.270Z,95215.14
2018-11-26T05:02:22.630Z,95210.66
2018-11-26T05:04:54.000Z,95212.27
2018-11-26T05:07:23.301Z,95218.47
2018-11-26T05:10:12.027Z,95217.95
2018-11-26T05:12:40.969Z,95215.05
2018-11-26T05:15:11.385Z,95217.38
2018-11-26T05:17:59.883Z,95209.74
2018-11-26T05:20:28.920Z,95207.13
2018-11-26T05:22:58.298Z,95209.25
2018-11-26T05:25:46.808Z,95213.50
2018-11-26T05:28:16.068Z,95208.97
2018-11-26T05:30:45.528Z,95213.50
2018-11-26T05:33:14.413Z,95217.98
2018-11-26T05:36:03.277Z,95224.06
2018-11-26T05:38:52.645Z,95217.23
2018-11-26T05:41:21.621Z,95219.70
2018-11-26T05:43:50.955Z,95215.73
2018-11-26T05:46:19.901Z,95211.72
2018-11-26T05:48:48.832Z,95212.00
2018-11-26T05:51:40.283Z,95212.29
2018-11-26T05:54:09.708Z,95217.08
2018-11-26T05:56:38.696Z,95213.46
2018-11-26T05:59:27.199Z,95218.23
2018-11-26T06:01:56.152Z,95209.50
2018-11-26T06:04:28.355Z,95209.50
2018-11-26T06:06:57.769Z,95211.56
2018-11-26T06:09:46.641Z,95220.24
2018-11-26T06:12:15.645Z,95222.36
2018-11-26T06:14:45.000Z,95225.34
2018-11-26T06:17:14.382Z,95226.16
2018-11-26T06:20:02.883Z,95223.56
2018-11-26T06:22:51.060Z,95224.11
2018-11-26T06:25:22.887Z,95223.59
2018-11-26T06:28:12.442Z,95229.73
2018-11-26T06:30:40.251Z,95225.77
2018-11-26T06:33:09.305Z,95229.56
2018-11-26T06:36:01.124Z,95227.22
2018-11-26T06:38:30.062Z,95226.69
2018-11-26T06:40:59.379Z,95228.26
2018-11-26T06:43:48.176Z,95218.20
2018-11-26T06:46:19.954Z,95223.78
2018-11-26T06:48:48.861Z,95227.74
2018-11-26T06:51:37.746Z,95235.44
2018-11-26T06:54:25.888Z,95235.67
2018-11-26T06:56:54.973Z,95235.67
2018-11-26T06:59:43.182Z,95232.05
2018-11-26T07:02:12.115Z,95239.69
2018-11-26T07:04:41.041Z,95245.26
2018-11-26T07:07:10.700Z,95238.37
2018-11-26T07:09:39.986Z,95243.13
2018-11-26T07:12:28.168Z,95242.95
2018-11-26T07:14:57.190Z,95240.83
2018-11-26T07:17:26.092Z,95242.16
2018-11-26T07:20:14.383Z,95249.28
2018-11-26T07:22:43.852Z,95245.31
2018-11-26T07:25:32.330Z,95242.95
2018-11-26T07:28:01.284Z,95242.98
2018-11-26T07:30:32.679Z,95246.42
2018-11-26T07:33:19.645Z,95259.35
2018-11-26T07:35:48.659Z,95255.39
2018-11-26T07:38:19.696Z,95256.77
2018-11-26T07:41:08.159Z,95254.35
2018-11-26T07:43:37.076Z,95254.06
2018-11-26T07:46:06.509Z,95261.19
2018-11-26T07:48:35.804Z,95253.03
2018-11-26T07:51:24.709Z,95253.09
2018-11-26T07:53:53.785Z,95246.14
2018-11-26T07:56:23.141Z,95255.44
2018-11-26T07:58:52.454Z,95255.21
2018-11-26T08:01:41.256Z,95258.95
2018-11-26T08:04:10.683Z,95260.03
2018-11-26T08:06:39.934Z,95262.91
2018-11-26T08:09:28.694Z,95265.84
2018-11-26T08:11:58.129Z,95271.12
2018-11-26T08:14:27.435Z,95269.00
2018-11-26T08:17:03.692Z,95275.11
2018-11-26T08:19:29.117Z,95273.53
2018-11-26T08:21:58.065Z,95278.09
2018-11-26T08:24:27.400Z,95274.08
2018-11-26T08:26:56.374Z,95274.88
2018-11-26T08:29:27.691Z,95278.30
2018-11-26T08:31:56.584Z,95282.01
2018-11-26T08:34:37.903Z,95290.43
2018-11-26T08:37:25.835Z,95292.21
2018-11-26T08:40:23.075Z,95289.80
2018-11-26T08:42:59.088Z,95283.63
2018-11-26T08:45:47.534Z,95290.70
2018-11-26T08:48:26.798Z,95284.09
2018-11-26T08:51:02.186Z,95291.16
2018-11-26T08:56:35.944Z,95288.28
2018-11-26T08:59:24.156Z,95294.61
2018-11-26T09:05:00.319Z,95296.24
2018-11-26T09:07:29.724Z,95298.34
2018-11-26T09:09:58.690Z,95297.48
2018-11-26T09:12:47.261Z,95299.03
2018-11-26T09:15:16.680Z,95300.58
2018-11-26T09:17:46.118Z,95301.32
2018-11-26T09:20:15.054Z,95308.47
2018-11-26T09:23:03.508Z,95303.70
2018-11-26T09:25:32.566Z,95308.93
2018-11-26T09:28:01.729Z,95308.35
2018-11-26T09:30:31.114Z,95305.87
2018-11-26T09:33:19.867Z,95311.97
2018-11-26T09:36:08.359Z,95306.17
2018-11-26T09:38:37.787Z,95302.98
2018-11-26T09:41:28.026Z,95311.13
2018-11-26T09:43:58.109Z,95310.04
2018-11-26T09:46:47.575Z,95309.84
2018-11-26T09:49:16.902Z,95304.53
2018-11-26T09:54:53.243Z,95308.49
2018-11-26T09:57:22.756Z,95303.50
2018-11-26T09:59:52.058Z,95307.34
2018-11-26T10:02:41.182Z,95304.76
2018-11-26T10:05:31.313Z,95309.01
2018-11-26T10:08:00.310Z,95309.84
2018-11-26T10:10:32.983Z,95305.87
2018-11-26T10:13:01.888Z,95308.58
2018-11-26T10:15:31.220Z,95304.39
2018-11-26T10:18:22.503Z,95302.50
2018-11-26T10:20:51.501Z,95309.39
2018-11-26T10:23:20.801Z,95302.50
2018-11-26T10:26:09.279Z,95307.27
2018-11-26T10:28:38.244Z,95306.75
2018-11-26T10:31:07.229Z,95298.53
2018-11-26T10:33:36.543Z,95296.13
2018-11-26T10:36:25.357Z,95295.06
2018-11-26T10:38:54.455Z,95295.31
2018-11-26T10:41:23.398Z,95289.26
2018-11-26T10:43:52.844Z,95296.38
2018-11-26T10:47:00.694Z,95302.50
2018-11-26T10:49:31.716Z,95298.02
2018-11-26T10:52:20.236Z,95294.00
2018-11-26T10:54:49.192Z,95292.96
2018-11-26T10:57:18.235Z,95296.92
2018-11-26T11:00:08.280Z,95297.50
2018-11-26T11:02:56.184Z,95283.43
2018-11-26T11:05:27.795Z,95286.65
2018-11-26T11:08:16.664Z,95291.70
2018-11-26T11:11:05.479Z,95292.50
2018-11-26T11:13:48.455Z,95288.25
2018-11-26T11:16:17.927Z,95293.59
2018-11-26T11:18:47.338Z,95286.54
2018-11-26T11:21:16.670Z,95287.28
2018-11-26T11:24:05.193Z,95284.41
2018-11-26T11:26:34.574Z,95287.34
2018-11-26T11:29:03.643Z,95281.48
2018-11-26T11:31:52.826Z,95279.36
2018-11-26T11:34:22.215Z,95285.73
2018-11-26T11:36:51.945Z,95274.25
2018-11-26T11:40:04.124Z,95275.25
2018-11-26T11:42:33.905Z,95264.91
2018-11-26T11:48:08.260Z,95265.44
2018-11-26T11:51:05.072Z,95263.62
2018-11-26T11:53:53.684Z,95270.11
2018-11-26T11:56:23.069Z,95271.20
2018-11-26T11:58:52.061Z,95272.33
2018-11-26T12:01:21.611Z,95270.26
2018-11-26T12:04:10.127Z,95273.19
2018-11-26T12:06:39.560Z,95274.28
2018-11-26T12:09:28.023Z,95280.37
2018-11-26T12:11:57.014Z,95274.73
2018-11-26T12:14:25.944Z,95271.75
2018-11-26T12:17:17.539Z,95276.52
2018-11-26T12:19:51.499Z,95270.17
2018-11-26T12:22:20.498Z,95271.20
2018-11-26T12:25:02.083Z,95268.56
2018-11-26T12:27:43.715Z,95269.91
2018-11-26T12:30:32.800Z,95275.97
2018-11-26T12:33:01.731Z,95277.98
2018-11-26T12:35:31.056Z,95273.93
2018-11-26T12:38:19.630Z,95277.55
2018-11-26T12:40:50.586Z,95278.29
2018-11-26T12:43:24.475Z,95276.39
2018-11-26T12:45:49.223Z,95279.81
2018-11-26T12:48:18.563Z,95284.80
2018-11-26T12:50:49.791Z,95284.52
2018-11-26T12:53:38.015Z,95288.19
2018-11-26T12:56:07.072Z,95287.38
2018-11-26T12:58:56.024Z,95289.73
2018-11-26T13:01:25.023Z,95288.98
2018-11-26T13:03:54.416Z,95287.44
2018-11-26T13:06:23.389Z,95288.41
2018-11-26T13:09:12.305Z,95287.38
2018-11-26T13:11:42.719Z,95289.80
2018-11-26T13:14:11.691Z,95293.53
2018-11-26T13:17:00.162Z,95293.70
2018-11-26T13:19:41.553Z,95292.89
2018-11-26T13:22:10.553Z,95288.13
2018-11-26T13:24:59.064Z,95294.44
2018-11-26T13:27:28.429Z,95297.50
2018-11-26T13:29:57.734Z,95299.75
2018-11-26T13:32:47.213Z,95301.17
2018-11-26T13:35:17.345Z,95296.64
2018-11-26T13:37:46.390Z,95297.95
2018-11-26T13:40:35.160Z,95299.24
2018-11-26T13:43:07.359Z,95306.39
2018-11-26T13:45:45.155Z,95305.55
2018-11-26T13:51:07.398Z,95308.99
2018-11-26T13:53:59.164Z,95301.94
2018-11-26T13:56:48.714Z,95306.13
2018-11-26T13:59:35.428Z,95309.50
2018-11-26T14:02:04.811Z,95308.92
2018-11-26T14:04:33.803Z,95315.77
2018-11-26T14:07:02.735Z,95323.72
2018-11-26T14:09:51.198Z,95318.44
2018-11-26T14:12:23.185Z,95319.98
2018-11-26T14:14:52.190Z,95327.97
2018-11-26T14:17:21.091Z,95330.53
2018-11-26T14:20:10.902Z,95334.75
2018-11-26T14:22:40.248Z,95336.17
2018-11-26T14:25:16.748Z,95331.92
2018-11-26T14:27:48.271Z,95327.90
2018-11-26T14:30:36.770Z,95340.83
2018-11-26T14:33:26.715Z,95340.47
2018-11-26T14:35:54.079Z,95340.25
2018-11-26T14:38:42.605Z,95339.22
2018-11-26T14:41:26.152Z,95339.00
2018-11-26T14:43:55.792Z,95342.89
2018-11-26T14:49:32.250Z,95344.72
2018-11-26T14:52:04.187Z,95344.42
2018-11-26T14:54:52.346Z,95345.38
2018-11-26T14:57:21.282Z,95346.92
2018-11-26T14:59:50.656Z,95344.06
2018-11-26T15:02:19.703Z,95344.58
2018-11-26T15:11:01.112Z,95349.56
2018-11-26T15:13:30.078Z,95351.13
2018-11-26T15:16:20.846Z,95350.55
2018-11-26T15:18:50.276Z,95356.12
2018-11-26T15:21:21.730Z,95354.14
2018-11-26T15:27:17.150Z,95357.00
2018-11-26T15:29:47.684Z,95362.57
2018-11-26T15:32:35.922Z,95363.16
2018-11-26T15:35:07.920Z,95364.25
2018-11-26T15:37:48.981Z,95367.41
2018-11-26T15:40:19.331Z,95363.23
2018-11-26T15:45:53.840Z,95365.57
2018-11-26T15:48:23.317Z,95372.39
2018-11-26T15:50:52.217Z,95369.31
2018-11-26T15:53:21.663Z,95364.98
2018-11-26T15:56:10.145Z,95367.33
2018-11-26T15:58:58.367Z,95365.80
2018-11-26T16:01:35.369Z,95376.34
2018-11-26T16:04:05.792Z,95377.15
2018-11-26T16:09:41.581Z,95373.19
2018-11-26T16:12:11.309Z,95376.86
2018-11-26T16:14:59.832Z,95378.91
2018-11-26T16:17:32.945Z,95383.34
2018-11-26T16:20:04.051Z,95380.99
2018-11-26T16:22:50.566Z,95380.99
2018-11-26T16:28:58.807Z,95382.02
2018-11-26T16:31:28.920Z,95385.98
2018-11-26T16:34:36.256Z,95382.64
2018-11-26T16:37:07.736Z,95390.45
2018-11-26T16:39:56.172Z,95392.20
2018-11-26T16:42:44.068Z,95394.11
2018-11-26T16:45:38.839Z,95401.51
2018-11-26T16:48:27.099Z,95397.48
2018-11-26T16:51:14.948Z,95402.53
2018-11-26T16:54:03.114Z,95408.83
2018-11-26T16:56:34.943Z,95405.39
2018-11-26T16:59:23.124Z,95410.73
2018-11-26T17:04:40.182Z,95410.95
2018-11-26T17:07:31.709Z,95414.91
2018-11-26T17:10:11.861Z,95415.72
2018-11-26T17:12:43.692Z,95414.33
2018-11-26T17:15:32.233Z,95420.19
2018-11-26T17:18:01.727Z,95417.98
2018-11-26T17:23:58.386Z,95415.06
2018-11-26T17:32:49.089Z,95428.94
2018-11-26T17:35:18.255Z,95429.45
2018-11-26T17:37:47.205Z,95429.88
2018-11-26T17:40:25.291Z,95435.37
2018-11-26T17:42:55.049Z,95446.00
2018-11-26T17:45:25.375Z,95448.34
2018-11-26T17:48:13.977Z,95460.42
2018-11-26T17:50:46.226Z,95460.08
2018-11-26T17:53:35.858Z,95453.63
2018-11-26T17:56:20.613Z,95471.50
2018-11-26T17:58:48.543Z,95468.66
2018-11-26T18:01:40.429Z,95473.04
2018-11-26T18:04:12.632Z,95473.04
2018-11-26T18:06:47.459Z,95476.44
2018-11-26T18:09:16.188Z,95476.14
2018-11-26T18:18:23.936Z,95483.16
2018-11-26T18:21:11.219Z,95485.38
2018-11-26T18:23:40.539Z,95487.63
2018-11-26T18:26:09.795Z,95489.16
2018-11-26T18:28:58.841Z,95492.09
2018-11-26T18:31:28.138Z,95492.01
2018-11-26T18:33:59.220Z,95502.50
2018-11-26T18:36:28.581Z,95499.48
2018-11-26T18:39:38.784Z,95499.06
2018-11-26T18:42:11.377Z,95498.38
2018-11-26T18:44:40.346Z,95502.41
2018-11-26T18:47:29.257Z,95504.45
2018-11-26T18:50:01.239Z,95500.80
2018-11-26T18:52:43.807Z,95507.90
2018-11-26T18:55:16.067Z,95505.98
2018-11-26T18:57:47.693Z,95507.01
2018-11-26T19:00:55.306Z,95513.08
2018-11-26T19:03:24.299Z,95518.56
2018-11-26T19:05:54.624Z,95523.62
2018-11-26T19:11:16.945Z,95526.20
2018-11-26T19:14:09.996Z,95530.16
2018-11-26T19:16:42.150Z,95526.13
2018-11-26T19:19:12.182Z,95526.13
2018-11-26T19:22:01.144Z,95530.28
2018-11-26T19:24:30.416Z,95529.98
2018-11-26T19:27:00.694Z,95537.08
2018-11-26T19:29:49.252Z,95540.44
2018-11-26T19:32:18.296Z,95539.88
2018-11-26T19:34:47.348Z,95540.30
2018-11-26T19:37:36.004Z,95544.67
2018-11-26T19:40:26.158Z,95539.86
2018-11-26T19:42:58.166Z,95533.54
2018-11-26T19:45:48.875Z,95541.59
2018-11-26T19:48:37.118Z,95549.34
2018-11-26T19:51:09.725Z,95551.92
2018-11-26T19:56:46.747Z,95554.68
2018-11-26T19:59:53.897Z,95555.40
2018-11-26T20:02:23.161Z,95560.33
2018-11-26T20:05:16.726Z,95558.30
2018-11-26T20:10:34.557Z,95564.11
2018-11-26T20:16:57.231Z,95569.02
2018-11-26T20:22:56.270Z,95576.23
2018-11-26T20:25:49.840Z,95580.69
2018-11-26T20:31:19.700Z,95579.31
2018-11-26T20:33:49.263Z,95585.95
2018-11-26T20:36:18.557Z,95583.73
2018-11-26T20:44:30.614Z,95599.03
2018-11-26T20:47:00.217Z,95603.72
2018-11-26T20:49:49.159Z,95599.78
2018-11-26T20:52:20.186Z,95605.25
2018-11-26T20:54:49.213Z,95609.20
2018-11-26T20:57:38.265Z,95609.02
2018-11-26T21:00:28.780Z,95605.45
2018-11-26T21:03:18.100Z,95600.49
2018-11-26T21:05:47.114Z,95596.91
2018-11-26T21:08:16.473Z,95609.35
2018-11-26T21:10:45.466Z,95610.61
2018-11-26T21:13:34.388Z,95618.33
2018-11-26T21:16:06.166Z,95616.41
2018-11-26T21:18:43.307Z,95620.05
2018-11-26T21:21:12.299Z,95621.31
2018-11-26T21:23:41.613Z,95613.41
2018-11-26T21:29:07.002Z,95619.09
2018-11-26T21:31:36.293Z,95617.27
2018-11-26T21:34:25.111Z,95625.56
2018-11-26T21:37:06.182Z,95626.64
2018-11-26T21:39:37.855Z,95627.13
2018-11-26T21:43:04.103Z,95626.02
2018-11-26T21:46:12.203Z,95625.59
2018-11-26T21:49:07.438Z,95630.77
2018-11-26T21:51:33.428Z,95632.89
2018-11-26T21:54:05.977Z,95642.22
2018-11-26T21:56:57.398Z,95640.91
2018-11-26T21:59:28.672Z,95640.91
2018-11-26T22:02:17.568Z,95645.45
2018-11-26T22:04:46.985Z,95644.53
2018-11-26T22:10:42.314Z,95658.11
2018-11-26T22:13:12.687Z,95659.13
2018-11-26T22:18:49.154Z,95658.63
2018-11-26T22:21:18.194Z,95652.96
2018-11-26T22:23:48.755Z,95662.17
2018-11-26T22:26:37.673Z,95662.17
2018-11-26T22:29:28.264Z,95663.59
2018-11-26T22:32:02.339Z,95670.56
2018-11-26T22:40:03.370Z,95681.20
2018-11-26T22:42:52.299Z,95689.10
2018-11-26T22:45:29.549Z,95697.30
2018-11-26T22:48:00.696Z,95695.06
2018-11-26T22:50:49.257Z,95698.51
2018-11-26T22:53:27.624Z,95694.56
2018-11-26T22:55:56.547Z,95698.20
2018-11-26T22:58:45.382Z,95706.61
2018-11-26T23:01:16.869Z,95705.41
2018-11-26T23:04:05.794Z,95705.61
2018-11-26T23:06:34.830Z,95708.34
2018-11-26T23:09:08.479Z,95704.59
2018-11-26T23:14:45.039Z,95700.75
2018-11-26T23:17:14.039Z,95702.17
2018-11-26T23:19:43.002Z,95705.85
2018-11-26T23:22:31.486Z,95705.61
2018-11-26T23:25:00.497Z,95703.17
2018-11-26T23:27:29.468Z,95704.30
2018-11-26T23:29:58.787Z,95704.90
2018-11-26T23:32:48.254Z,95706.22
2018-11-26T23:35:38.980Z,95703.48
2018-11-26T23:38:26.881Z,95710.58
2018-11-26T23:40:56.231Z,95710.67
2018-11-26T23:43:25.222Z,95712.64
2018-11-26T23:46:14.132Z,95704.94
2018-11-26T23:48:43.500Z,95709.30
2018-11-26T23:51:12.525Z,95712.44
2018-11-26T23:53:41.892Z,95711.77
2018-11-26T23:56:30.626Z,95710.76
2018-11-26T23:58:59.635Z,95714.41
